Time;durP1;ratioP1;P1;durP2;ratioP2;P2;SDS_P1;SDS_P2;PMS_P1;PMS_P2;Temp;Humidity;BMP_temperature;BMP_pressure;BME280_temperature;BME280_humidity;BME280_pressure;Samples;Min_cycle;Max_cycle;Signal;HPM_P1;HPM_P2
2023/08/21 00:00:46;;;;;;;8.18;5.82;;;;;;;21.09;100.00;97810.41;5002346;28;20048;-60
2023/08/21 00:03:12;;;;;;;11.38;5.97;;;;;;;21.03;100.00;97810.53;4965510;28;20082;-61
2023/08/21 00:05:39;;;;;;;9.25;6.15;;;;;;;21.05;100.00;97811.00;5014970;28;20399;-61
2023/08/21 00:08:07;;;;;;;9.43;6.30;;;;;;;21.02;100.00;97808.06;4962517;28;20528;-61
2023/08/21 00:10:37;;;;;;;10.82;5.80;;;;;;;21.04;100.00;97812.13;4979937;28;20046;-61
2023/08/21 00:13:05;;;;;;;8.63;5.82;;;;;;;21.00;100.00;97810.31;5010114;28;20040;-61
2023/08/21 00:15:31;;;;;;;8.77;6.25;;;;;;;21.00;100.00;97810.31;4986833;28;20043;-62
2023/08/21 00:17:58;;;;;;;10.32;5.70;;;;;;;21.00;100.00;97807.56;4997433;28;20072;-62
2023/08/21 00:20:25;;;;;;;10.38;5.88;;;;;;;21.00;100.00;97808.38;4969488;28;20410;-62
2023/08/21 00:22:51;;;;;;;8.55;5.80;;;;;;;21.02;100.00;97803.41;4979274;28;20575;-61
2023/08/21 00:25:21;;;;;;;7.80;5.50;;;;;;;20.95;100.00;97807.69;4985863;28;20047;-61
2023/08/21 00:27:47;;;;;;;8.65;6.07;;;;;;;20.89;100.00;97805.06;5033426;28;20036;-61
2023/08/21 00:30:16;;;;;;;9.25;5.60;;;;;;;20.84;100.00;97801.56;4996759;28;20057;-61
2023/08/21 00:32:43;;;;;;;8.35;5.40;;;;;;;20.80;100.00;97793.13;4976312;28;20046;-60
2023/08/21 00:35:10;;;;;;;10.73;5.35;;;;;;;20.79;100.00;97799.75;4998067;28;20129;-62
2023/08/21 00:37:36;;;;;;;9.10;5.13;;;;;;;20.76;100.00;97798.44;4962899;28;20525;-62
2023/08/21 00:40:03;;;;;;;9.05;6.03;;;;;;;20.74;100.00;97797.91;4963291;28;20077;-62
2023/08/21 00:42:31;;;;;;;10.75;6.32;;;;;;;20.66;100.00;97791.22;4977301;28;20135;-62
2023/08/21 00:44:59;;;;;;;8.05;5.55;;;;;;;20.65;100.00;97794.28;4991835;28;20497;-62
2023/08/21 00:47:26;;;;;;;10.23;6.45;;;;;;;20.62;100.00;97790.19;4965207;28;20122;-62
2023/08/21 00:49:53;;;;;;;9.85;5.63;;;;;;;20.65;100.00;97786.81;4966159;28;20055;-62
2023/08/21 00:52:19;;;;;;;8.60;5.78;;;;;;;20.67;100.00;97792.00;4964667;28;20042;-62
2023/08/21 00:54:46;;;;;;;9.05;5.30;;;;;;;20.69;100.00;97784.28;4988794;28;20516;-62
2023/08/21 00:57:14;;;;;;;8.02;5.10;;;;;;;20.64;100.00;97776.94;4962073;28;20042;-62
2023/08/21 00:59:40;;;;;;;9.02;5.45;;;;;;;20.59;100.00;97778.97;4964485;28;20043;-62
2023/08/21 01:02:07;;;;;;;7.65;5.75;;;;;;;20.62;100.00;97779.19;4993401;28;20077;-61
2023/08/21 01:04:34;;;;;;;7.22;5.13;;;;;;;20.65;100.00;97775.81;4992787;28;20068;-62
2023/08/21 01:07:00;;;;;;;8.38;5.80;;;;;;;20.66;100.00;97780.22;4959496;28;20049;-62
2023/08/21 01:09:41;;;;;;;8.77;5.28;;;;;;;20.62;100.00;97773.69;4977996;28;20040;-61
2023/08/21 01:12:32;;;;;;;6.70;5.33;;;;;;;20.60;100.00;97781.44;5000771;28;20038;-62
2023/08/21 01:15:09;;;;;;;8.82;5.57;;;;;;;20.53;100.00;97778.31;5017175;28;20496;-61
2023/08/21 01:17:37;;;;;;;7.68;5.35;;;;;;;20.50;100.00;97778.91;4962784;28;20421;-61
2023/08/21 01:20:08;;;;;;;7.32;5.85;;;;;;;20.45;100.00;97790.03;5031575;28;20120;-61
2023/08/21 01:22:40;;;;;;;6.70;5.15;;;;;;;20.40;100.00;97783.50;4963209;28;20126;-62
2023/08/21 01:25:08;;;;;;;14.48;6.07;;;;;;;20.38;100.00;97790.44;5000358;28;20058;-61
2023/08/21 01:27:35;;;;;;;7.95;5.63;;;;;;;20.35;100.00;97791.03;4997223;28;20130;-62
2023/08/21 01:30:03;;;;;;;10.45;6.00;;;;;;;20.35;100.00;97796.53;4988933;28;20123;-61
2023/08/21 01:32:38;;;;;;;8.02;5.85;;;;;;;20.32;100.00;97789.72;5014759;28;20064;-61
2023/08/21 01:35:07;;;;;;;9.05;5.82;;;;;;;20.28;100.00;97791.47;5014299;28;20042;-61
2023/08/21 01:37:34;;;;;;;9.10;6.38;;;;;;;20.28;100.00;97795.00;4960734;28;20130;-62
2023/08/21 01:40:00;;;;;;;8.32;5.75;;;;;;;20.24;100.00;97790.44;4985887;28;20045;-61
2023/08/21 01:42:27;;;;;;;9.55;5.70;;;;;;;20.19;100.00;97788.59;4967246;28;20433;-61
2023/08/21 01:44:57;;;;;;;9.48;6.28;;;;;;;20.16;100.00;97778.19;4994465;28;20053;-61
2023/08/21 01:47:24;;;;;;;10.52;6.40;;;;;;;20.09;100.00;97778.59;4982831;28;20047;-62
2023/08/21 01:49:53;;;;;;;9.35;6.10;;;;;;;20.16;100.00;97777.41;4984217;28;20051;-61
2023/08/21 01:52:20;;;;;;;8.02;5.57;;;;;;;20.10;100.00;97769.25;4962341;28;20051;-62
2023/08/21 01:54:47;;;;;;;11.85;6.13;;;;;;;20.08;100.00;97779.72;4985539;28;20042;-61
2023/08/21 01:57:14;;;;;;;8.63;5.97;;;;;;;20.06;100.00;97781.16;4960508;28;20581;-61
2023/08/21 01:59:41;;;;;;;9.02;5.88;;;;;;;20.07;100.00;97778.09;4976602;28;20104;-62
2023/08/21 02:02:07;;;;;;;9.63;6.60;;;;;;;20.02;100.00;97773.50;4957940;28;20043;-62
2023/08/21 02:04:34;;;;;;;8.68;5.60;;;;;;;20.15;100.00;97784.81;4988232;28;20075;-62
2023/08/21 02:07:00;;;;;;;8.60;5.32;;;;;;;20.16;100.00;97772.69;4972090;28;20043;-61
2023/08/21 02:09:27;;;;;;;8.07;5.75;;;;;;;20.19;100.00;97776.81;4957944;28;20039;-61
2023/08/21 02:11:53;;;;;;;8.55;5.93;;;;;;;20.11;100.00;97776.38;4975555;28;20097;-62
2023/08/21 02:14:20;;;;;;;8.00;5.75;;;;;;;20.09;100.00;97783.31;4970118;28;20047;-61
2023/08/21 02:16:48;;;;;;;8.18;5.55;;;;;;;20.05;100.00;97787.78;5013929;28;20091;-61
2023/08/21 02:19:15;;;;;;;8.73;5.55;;;;;;;19.99;100.00;97789.81;4962282;28;20041;-61
2023/08/21 02:21:43;;;;;;;8.15;6.05;;;;;;;19.95;100.00;97786.84;4978540;28;20038;-61
2023/08/21 02:24:09;;;;;;;7.82;5.63;;;;;;;19.96;100.00;97784.88;4982809;28;21625;-61
2023/08/21 02:26:37;;;;;;;9.00;6.03;;;;;;;19.92;100.00;97783.84;4990556;28;20033;-62
2023/08/21 02:29:04;;;;;;;9.45;5.78;;;;;;;19.87;100.00;97791.09;4970163;28;20050;-66
2023/08/21 02:31:32;;;;;;;8.23;6.63;;;;;;;19.87;100.00;97791.09;4976379;28;20038;-62
2023/08/21 02:33:58;;;;;;;10.45;6.32;;;;;;;19.85;100.00;97792.50;4983618;28;20044;-62
2023/08/21 02:36:25;;;;;;;10.30;6.50;;;;;;;19.86;100.00;97792.19;4971489;28;20520;-61
2023/08/21 02:38:52;;;;;;;9.15;6.10;;;;;;;19.87;100.00;97793.03;4965683;28;20051;-62
2023/08/21 02:41:18;;;;;;;9.65;6.05;;;;;;;19.93;100.00;97796.50;4984873;28;20122;-60
2023/08/21 02:43:45;;;;;;;11.57;6.20;;;;;;;19.99;100.00;97800.81;4983967;28;20100;-59
2023/08/21 02:46:14;;;;;;;8.00;5.78;;;;;;;20.00;100.00;97794.19;4971970;28;20038;-58
2023/08/21 02:48:40;;;;;;;8.75;5.57;;;;;;;19.98;100.00;97790.91;4964561;28;20192;-60
2023/08/21 02:51:07;;;;;;;9.45;6.18;;;;;;;19.96;100.00;97790.38;4966053;28;20053;-60
2023/08/21 02:53:33;;;;;;;8.77;6.07;;;;;;;19.92;100.00;97792.09;4970511;28;20445;-60
2023/08/21 02:56:00;;;;;;;14.13;5.85;;;;;;;19.94;100.00;97787.13;4967533;28;20122;-60
2023/08/21 02:58:26;;;;;;;9.88;6.53;;;;;;;19.92;100.00;97794.84;4991686;28;20046;-60
2023/08/21 03:00:53;;;;;;;9.80;6.38;;;;;;;19.84;100.00;97786.22;4965719;28;20046;-59
2023/08/21 03:03:20;;;;;;;9.88;6.20;;;;;;;19.82;100.00;97787.59;4963466;28;20096;-60
2023/08/21 03:05:46;;;;;;;8.02;5.57;;;;;;;19.78;100.00;97789.34;4981083;28;20509;-61
2023/08/21 03:08:13;;;;;;;12.07;6.35;;;;;;;19.72;100.00;97794.91;4997266;28;20113;-61
2023/08/21 03:10:40;;;;;;;8.52;6.05;;;;;;;19.76;100.00;97792.41;4978823;28;20074;-59
2023/08/21 03:13:06;;;;;;;12.57;6.85;;;;;;;19.80;100.00;97790.69;4963760;28;20138;-60
2023/08/21 03:15:34;;;;;;;8.23;6.85;;;;;;;19.81;100.00;97786.81;4979791;28;20092;-60
2023/08/21 03:18:01;;;;;;;9.85;5.68;;;;;;;19.82;100.00;97795.84;4956057;28;20054;-59
2023/08/21 03:20:28;;;;;;;8.63;6.10;;;;;;;19.82;100.00;97788.44;4963758;28;20047;-60
2023/08/21 03:22:55;;;;;;;11.35;6.03;;;;;;;19.85;100.00;97792.50;4962744;28;20597;-59
2023/08/21 03:25:23;;;;;;;10.13;6.30;;;;;;;19.78;100.00;97798.41;4967416;28;20526;-60
2023/08/21 03:27:50;;;;;;;8.98;5.80;;;;;;;19.82;100.00;97793.94;4995850;28;20036;-60
2023/08/21 03:30:16;;;;;;;8.55;5.85;;;;;;;19.83;100.00;97795.56;4964669;28;20708;-61
2023/08/21 03:32:43;;;;;;;8.68;6.28;;;;;;;19.81;100.00;97802.47;4963516;28;20063;-60
2023/08/21 03:35:10;;;;;;;10.43;7.00;;;;;;;19.65;100.00;97801.94;4978025;28;21318;-60
2023/08/21 03:37:37;;;;;;;10.95;6.50;;;;;;;19.54;100.00;97798.53;4986003;28;20032;-61
2023/08/21 03:40:06;;;;;;;9.50;6.63;;;;;;;19.50;100.00;97801.88;4954457;28;20046;-61
2023/08/21 03:42:33;;;;;;;9.20;5.93;;;;;;;19.53;100.00;97803.22;4989013;28;20050;-60
2023/08/21 03:44:59;;;;;;;10.02;6.32;;;;;;;19.53;100.00;97799.66;4977071;28;20229;-59
2023/08/21 03:47:26;;;;;;;14.90;7.45;;;;;;;19.49;100.00;97805.75;4968420;28;20126;-59
2023/08/21 03:49:57;;;;;;;7.78;5.82;;;;;;;19.48;100.00;97800.56;4962057;28;20058;-60
2023/08/21 03:52:25;;;;;;;10.13;6.60;;;;;;;19.42;100.00;97802.56;4968089;28;20058;-59
2023/08/21 03:54:51;;;;;;;9.88;6.40;;;;;;;19.33;100.00;97805.19;4976145;28;20129;-59
2023/08/21 03:57:18;;;;;;;8.82;6.93;;;;;;;19.32;100.00;97806.28;5014375;28;20161;-59
2023/08/21 03:59:44;;;;;;;8.60;6.20;;;;;;;19.28;100.00;97808.03;4985386;28;20047;-60
2023/08/21 04:02:12;;;;;;;11.15;6.75;;;;;;;19.28;100.00;97810.78;4993421;28;20057;-60
2023/08/21 04:04:39;;;;;;;11.57;8.30;;;;;;;19.32;100.00;97819.22;4977029;28;20066;-61
2023/08/21 04:07:06;;;;;;;8.80;7.30;;;;;;;19.31;100.00;97821.13;4991766;28;20043;-59
2023/08/21 04:09:32;;;;;;;9.48;6.47;;;;;;;19.30;100.00;97824.19;4970332;28;20130;-60
2023/08/21 04:11:59;;;;;;;9.13;5.95;;;;;;;19.28;100.00;97827.25;4991136;28;20168;-60
2023/08/21 04:14:25;;;;;;;8.40;6.53;;;;;;;19.29;100.00;97825.31;4973374;28;20039;-60
2023/08/21 04:16:52;;;;;;;9.93;6.95;;;;;;;19.29;100.00;97828.03;4991025;28;20070;-60
2023/08/21 04:19:19;;;;;;;9.18;6.90;;;;;;;19.32;100.00;97832.94;4965779;28;20058;-59
2023/08/21 04:21:45;;;;;;;12.98;6.82;;;;;;;19.32;100.00;97830.19;4969501;28;20047;-59
2023/08/21 04:24:12;;;;;;;7.30;6.18;;;;;;;19.23;100.00;97833.63;4979603;28;20624;-60
2023/08/21 04:26:38;;;;;;;10.63;7.07;;;;;;;19.21;100.00;97835.03;5038551;28;20044;-59
2023/08/21 04:29:05;;;;;;;9.80;6.78;;;;;;;19.22;100.00;97828.41;4974972;28;20527;-59
2023/08/21 04:31:32;;;;;;;12.60;6.75;;;;;;;19.16;100.00;97832.38;4999781;28;20047;-60
2023/08/21 04:33:58;;;;;;;9.38;6.13;;;;;;;19.15;100.00;97831.53;4985090;28;20053;-60
2023/08/21 04:36:26;;;;;;;11.77;6.57;;;;;;;19.14;100.00;97840.06;4996635;28;20395;-61
2023/08/21 04:38:52;;;;;;;11.63;6.53;;;;;;;19.10;100.00;97834.38;4963887;28;20476;-61
2023/08/21 04:41:20;;;;;;;12.98;8.25;;;;;;;19.10;100.00;97835.16;5014848;28;20405;-59
2023/08/21 04:43:46;;;;;;;8.95;6.40;;;;;;;19.13;100.00;97832.97;4966291;28;20050;-60
2023/08/21 04:46:13;;;;;;;10.68;6.90;;;;;;;19.17;100.00;97832.06;4941244;28;20053;-60
2023/08/21 04:48:42;;;;;;;10.88;6.15;;;;;;;19.21;100.00;97832.28;4962878;28;20050;-59
2023/08/21 04:51:08;;;;;;;9.80;6.25;;;;;;;19.20;100.00;97836.16;4977977;28;20090;-60
2023/08/21 04:53:36;;;;;;;12.45;6.68;;;;;;;19.24;100.00;97831.69;4963935;28;20133;-60
2023/08/21 04:56:05;;;;;;;9.55;6.40;;;;;;;19.28;100.00;97832.75;4984541;28;20131;-60
2023/08/21 04:58:33;;;;;;;8.55;6.20;;;;;;;19.33;100.00;97834.56;4962569;28;20092;-60
2023/08/21 05:01:00;;;;;;;9.35;6.72;;;;;;;19.41;100.00;97835.81;4976844;28;20037;-59
2023/08/21 05:03:27;;;;;;;9.43;5.97;;;;;;;19.45;100.00;97834.09;4961170;28;20449;-60
2023/08/21 05:05:55;;;;;;;9.68;6.65;;;;;;;19.54;100.00;97837.00;4974043;28;20508;-60
2023/08/21 05:08:23;;;;;;;9.98;6.35;;;;;;;19.52;100.00;97840.03;4962148;28;20125;-60
2023/08/21 05:10:58;;;;;;;9.82;5.80;;;;;;;19.64;100.00;97845.06;4966528;28;20073;-61
2023/08/21 05:13:26;;;;;;;10.18;6.57;;;;;;;19.62;100.00;97842.63;4961093;28;20049;-60
2023/08/21 05:15:55;;;;;;;9.00;6.03;;;;;;;19.59;100.00;97847.88;4980517;28;20077;-60
2023/08/21 05:18:23;;;;;;;9.48;5.93;;;;;;;19.59;100.00;97845.16;4962553;28;20133;-60
2023/08/21 05:20:52;;;;;;;9.75;6.57;;;;;;;19.60;100.00;97844.03;4969813;28;20046;-60
2023/08/21 05:23:18;;;;;;;10.07;6.32;;;;;;;19.69;100.00;97846.91;4987772;28;20518;-60
2023/08/21 05:25:49;;;;;;;10.43;6.55;;;;;;;19.78;100.00;97845.09;4967241;28;20687;-60
2023/08/21 05:28:15;;;;;;;9.73;6.45;;;;;;;19.90;100.00;97850.09;4962261;28;20043;-60
2023/08/21 05:30:42;;;;;;;11.10;6.55;;;;;;;19.97;100.00;97845.03;4960619;28;20410;-61
2023/08/21 05:33:09;;;;;;;11.07;7.15;;;;;;;20.06;100.00;97844.38;4962662;28;20055;-60
2023/08/21 05:35:36;;;;;;;9.85;6.50;;;;;;;20.14;100.00;97852.75;4969231;28;20486;-60
2023/08/21 05:38:03;;;;;;;10.55;5.68;;;;;;;20.24;100.00;97854.47;4968201;28;20047;-60
2023/08/21 05:40:30;;;;;;;9.20;6.28;;;;;;;20.33;100.00;97851.00;4966386;28;20066;-60
2023/08/21 05:42:57;;;;;;;9.27;6.32;;;;;;;20.43;100.00;97853.59;4965239;28;20047;-60
2023/08/21 05:45:24;;;;;;;10.38;6.65;;;;;;;20.53;100.00;97852.56;4949415;28;21777;-60
2023/08/21 05:47:51;;;;;;;9.63;6.55;;;;;;;20.58;100.00;97852.47;4964025;28;20070;-60
2023/08/21 05:50:17;;;;;;;8.85;5.95;;;;;;;20.67;100.00;97850.59;4959586;28;20043;-61
2023/08/21 05:52:44;;;;;;;9.80;6.50;;;;;;;20.81;100.00;97855.28;4995321;28;20043;-60
2023/08/21 05:55:11;;;;;;;9.75;6.18;;;;;;;20.94;100.00;97855.59;4964806;28;20051;-61
2023/08/21 05:57:37;;;;;;;11.65;6.55;;;;;;;21.02;100.00;97849.38;4988621;28;20051;-61
2023/08/21 06:00:08;;;;;;;11.90;6.50;;;;;;;21.13;100.00;97855.47;4996786;28;20507;-60
2023/08/21 06:02:41;;;;;;;12.55;6.20;;;;;;;21.24;100.00;97858.78;4979707;28;20144;-61
2023/08/21 06:05:14;;;;;;;11.63;7.65;;;;;;;21.31;100.00;97859.97;4971328;28;20047;-60
2023/08/21 06:07:42;;;;;;;9.98;6.10;;;;;;;21.44;100.00;97860.25;4963771;28;20039;-60
2023/08/21 06:10:12;;;;;;;11.77;5.65;;;;;;;21.56;100.00;97862.47;4968334;28;20126;-60
2023/08/21 06:12:41;;;;;;;7.75;5.55;;;;;;;21.70;100.00;97859.63;4980706;28;20081;-61
2023/08/21 06:15:09;;;;;;;8.43;6.28;;;;;;;21.85;100.00;97857.66;5001282;28;20050;-61
2023/08/21 06:17:36;;;;;;;12.00;5.85;;;;;;;21.98;100.00;97866.97;4972019;28;20133;-61
2023/08/21 06:20:05;;;;;;;7.47;5.47;;;;;;;22.10;100.00;97864.44;4963719;28;20058;-60
2023/08/21 06:22:32;;;;;;;8.10;5.82;;;;;;;22.20;100.00;97858.66;4969649;28;20092;-61
2023/08/21 06:24:59;;;;;;;10.77;5.82;;;;;;;22.30;100.00;97862.28;4967915;28;20046;-61
2023/08/21 06:27:25;;;;;;;10.07;5.75;;;;;;;22.43;100.00;97869.63;4968654;28;21203;-61
2023/08/21 06:29:52;;;;;;;8.95;5.97;;;;;;;22.55;100.00;97873.75;4964902;28;20484;-61
2023/08/21 06:32:19;;;;;;;8.93;5.25;;;;;;;22.64;100.00;97862.75;4966219;28;20130;-60
2023/08/21 06:34:47;;;;;;;7.40;6.05;;;;;;;22.74;100.00;97871.53;5000108;28;20524;-61
2023/08/21 06:37:13;;;;;;;6.63;5.45;;;;;;;22.85;100.00;97865.72;4965097;28;21670;-60
2023/08/21 06:39:40;;;;;;;9.50;5.55;;;;;;;22.99;100.00;97869.16;4974683;28;20082;-61
2023/08/21 06:42:07;;;;;;;9.00;5.22;;;;;;;23.11;99.88;97865.75;4963904;28;20061;-60
2023/08/21 06:44:40;;;;;;;9.55;5.90;;;;;;;23.19;98.41;97860.56;4979736;28;20050;-60
2023/08/21 06:47:07;;;;;;;8.10;4.97;;;;;;;23.30;97.72;97867.41;4965317;28;20124;-60
2023/08/21 06:49:33;;;;;;;8.50;5.28;;;;;;;23.41;95.24;97872.63;4964912;28;20047;-60
2023/08/21 06:52:00;;;;;;;7.50;5.38;;;;;;;23.52;93.92;97871.97;4965461;28;20074;-60
2023/08/21 06:54:26;;;;;;;8.23;5.18;;;;;;;23.60;94.27;97873.13;4979396;28;20108;-61
2023/08/21 06:56:53;;;;;;;7.32;4.97;;;;;;;23.70;93.51;97877.47;4964509;28;20042;-61
2023/08/21 06:59:19;;;;;;;7.72;4.38;;;;;;;23.78;92.73;97873.09;4959578;28;20085;-60
2023/08/21 07:01:46;;;;;;;8.35;4.90;;;;;;;23.86;92.19;97879.75;4943769;28;20043;-61
2023/08/21 07:04:13;;;;;;;7.35;4.70;;;;;;;23.94;92.57;97876.16;4984809;28;20041;-60
2023/08/21 07:06:40;;;;;;;9.73;5.00;;;;;;;24.01;89.51;97873.72;4963499;28;20070;-60
2023/08/21 07:09:07;;;;;;;8.18;4.78;;;;;;;24.15;87.04;97878.25;4969013;28;20042;-60
2023/08/21 07:11:33;;;;;;;8.98;4.25;;;;;;;24.29;86.32;97875.28;4981975;28;20549;-60
2023/08/21 07:14:00;;;;;;;6.88;4.00;;;;;;;24.34;85.72;97877.88;4970229;28;20047;-60
2023/08/21 07:16:26;;;;;;;7.25;4.70;;;;;;;24.51;85.16;97873.41;4973306;28;20057;-60
2023/08/21 07:18:53;;;;;;;7.10;4.85;;;;;;;24.66;84.60;97883.91;4973012;28;20035;-60
2023/08/21 07:21:20;;;;;;;7.53;4.85;;;;;;;24.72;84.75;97880.97;4963050;28;20042;-61
2023/08/21 07:24:00;;;;;;;6.07;4.13;;;;;;;24.76;84.10;97890.22;4970972;28;20047;-60
2023/08/21 07:26:26;;;;;;;10.20;4.80;;;;;;;24.85;85.10;97882.72;4970428;28;20070;-61
2023/08/21 07:28:53;;;;;;;7.78;5.00;;;;;;;24.95;83.41;97884.28;4966002;28;20039;-60
2023/08/21 07:31:19;;;;;;;6.57;4.57;;;;;;;25.07;83.61;97887.13;4959069;28;20062;-60
2023/08/21 07:33:46;;;;;;;6.80;4.18;;;;;;;25.22;83.73;97884.94;4966459;28;20067;-60
2023/08/21 07:36:16;;;;;;;6.63;4.63;;;;;;;25.33;82.49;97890.88;4969726;28;20095;-61
2023/08/21 07:38:44;;;;;;;7.38;4.50;;;;;;;25.42;82.40;97893.56;4980101;28;20664;-61
2023/08/21 07:41:12;;;;;;;7.30;4.90;;;;;;;25.60;82.79;97899.03;4964354;28;20488;-60
2023/08/21 07:43:42;;;;;;;6.65;4.35;;;;;;;25.65;81.67;97896.81;4972531;28;20043;-61
2023/08/21 07:46:13;;;;;;;;;;;;;;;25.74;82.98;97904.25;4962648;28;20049;-61
2023/08/21 07:48:40;;;;;;;8.57;4.60;;;;;;;25.78;80.61;97900.47;4985079;28;19929;-61
2023/08/21 07:51:06;;;;;;;7.78;4.28;;;;;;;25.93;79.79;97896.25;4963885;28;20051;-60
2023/08/21 07:53:34;;;;;;;6.07;4.35;;;;;;;26.02;78.28;97906.47;4984661;28;20704;-61
2023/08/21 07:56:03;;;;;;;8.68;4.90;;;;;;;26.08;77.76;97899.53;4968156;28;20482;-61
2023/08/21 07:58:30;;;;;;;7.50;4.40;;;;;;;26.05;77.61;97903.00;4963948;28;20038;-61
2023/08/21 08:00:59;;;;;;;10.50;4.50;;;;;;;26.08;77.66;97907.84;4989674;28;20039;-61
2023/08/21 08:03:25;;;;;;;7.10;4.55;;;;;;;26.13;76.57;97909.59;4968742;28;20159;-60
2023/08/21 08:05:52;;;;;;;6.70;4.68;;;;;;;26.22;76.10;97910.31;4968535;28;20051;-61
2023/08/21 08:08:22;;;;;;;9.13;4.63;;;;;;;26.24;76.64;97908.03;4968979;28;20045;-60
2023/08/21 08:10:48;;;;;;;10.63;5.15;;;;;;;26.31;76.29;97911.06;4985403;28;20051;-62
2023/08/21 08:13:15;;;;;;;7.95;4.88;;;;;;;26.29;76.19;97907.84;4964249;28;20065;-60
2023/08/21 08:15:42;;;;;;;8.43;4.50;;;;;;;26.30;75.10;97909.44;4962858;28;20663;-60
2023/08/21 08:18:12;;;;;;;7.38;4.90;;;;;;;26.32;77.14;97907.13;4968589;28;20046;-60
2023/08/21 08:20:40;;;;;;;7.30;4.57;;;;;;;26.33;76.96;97911.53;4956761;28;20150;-60
2023/08/21 08:23:06;;;;;;;9.18;5.00;;;;;;;26.37;76.28;97908.88;4961754;28;20053;-60
2023/08/21 08:25:33;;;;;;;7.32;5.38;;;;;;;26.47;76.74;97908.41;4970075;28;20133;-61
2023/08/21 08:28:00;;;;;;;6.95;5.20;;;;;;;26.47;75.88;97907.63;4962835;28;20062;-61
2023/08/21 08:30:26;;;;;;;6.85;5.13;;;;;;;26.50;76.04;97904.16;4990536;28;20057;-60
2023/08/21 08:32:53;;;;;;;7.18;4.68;;;;;;;26.48;75.52;97910.06;4997327;28;20046;-61
2023/08/21 08:35:20;;;;;;;11.93;5.47;;;;;;;26.60;75.49;97906.47;4973689;28;20035;-60
2023/08/21 08:37:46;;;;;;;7.30;4.47;;;;;;;26.62;75.45;97901.41;4963926;28;20082;-61
2023/08/21 08:40:13;;;;;;;6.15;4.80;;;;;;;26.69;75.19;97905.56;4989299;28;20050;-61
2023/08/21 08:42:39;;;;;;;9.23;5.00;;;;;;;26.75;75.15;97901.38;4976124;28;20517;-61
2023/08/21 08:45:06;;;;;;;7.35;5.13;;;;;;;26.80;74.17;97897.56;4975610;28;20055;-61
2023/08/21 08:47:34;;;;;;;6.97;4.43;;;;;;;26.86;73.15;97902.53;4996367;28;20046;-61
2023/08/21 08:50:06;;;;;;;6.30;4.45;;;;;;;27.01;71.57;97892.72;4984543;28;20051;-61
2023/08/21 08:52:36;;;;;;;6.70;4.80;;;;;;;27.06;70.50;97900.03;4967033;28;20047;-61
2023/08/21 08:55:03;;;;;;;8.93;4.88;;;;;;;27.10;70.56;97898.16;4986663;28;20050;-60
2023/08/21 08:57:30;;;;;;;7.82;4.13;;;;;;;27.08;68.60;97900.47;4961641;28;20042;-61
2023/08/21 08:59:57;;;;;;;6.82;4.55;;;;;;;27.13;69.11;97899.44;4980429;28;20042;-61
2023/08/21 09:02:26;;;;;;;6.15;4.55;;;;;;;27.14;68.68;97898.28;4966236;28;20047;-61
2023/08/21 09:04:53;;;;;;;6.60;4.45;;;;;;;27.24;68.94;97905.31;4971181;28;20667;-61
2023/08/21 09:07:20;;;;;;;7.22;4.43;;;;;;;27.37;69.54;97895.78;4961623;28;20043;-61
2023/08/21 09:09:49;;;;;;;6.63;4.30;;;;;;;27.47;68.18;97902.84;4979985;28;20125;-61
2023/08/21 09:12:17;;;;;;;8.48;4.65;;;;;;;27.66;67.67;97901.41;4961045;28;21286;-61
2023/08/21 09:14:44;;;;;;;6.00;4.13;;;;;;;27.79;66.41;97900.19;4971775;28;20109;-61
2023/08/21 09:17:12;;;;;;;7.75;4.15;;;;;;;27.87;64.67;97903.19;4985155;28;20071;-61
2023/08/21 09:19:39;;;;;;;6.30;4.13;;;;;;;27.88;62.05;97907.56;4975082;28;20055;-61
2023/08/21 09:22:18;;;;;;;7.72;4.03;;;;;;;27.87;62.04;97898.44;4971614;28;20690;-61
2023/08/21 09:25:10;;;;;;;6.13;4.25;;;;;;;27.85;62.19;97895.19;4992594;28;20062;-61
2023/08/21 09:27:38;;;;;;;9.70;4.35;;;;;;;27.90;62.15;97906.06;4956796;28;20050;-61
2023/08/21 09:30:09;;;;;;;7.78;4.07;;;;;;;27.95;60.45;97904.19;4975961;28;20039;-61
2023/08/21 09:32:57;;;;;;;6.65;3.92;;;;;;;28.07;61.50;97908.91;4989864;28;20070;-61
2023/08/21 09:35:24;;;;;;;6.63;4.10;;;;;;;28.13;62.12;97907.47;4995246;28;20045;-61
2023/08/21 09:37:52;;;;;;;6.00;3.40;;;;;;;28.15;60.13;97900.38;4965411;28;20097;-61
2023/08/21 09:40:23;;;;;;;6.07;3.65;;;;;;;28.15;59.61;97907.88;4971892;28;20042;-61
2023/08/21 09:42:54;;;;;;;7.90;3.67;;;;;;;28.14;59.88;97897.94;4966899;28;20107;-61
2023/08/21 09:45:25;;;;;;;6.20;3.85;;;;;;;28.15;59.91;97897.56;5009520;28;20038;-61
2023/08/21 09:47:52;;;;;;;6.57;3.60;;;;;;;28.22;60.12;97896.97;4965698;28;20071;-61
2023/08/21 09:50:20;;;;;;;6.47;3.80;;;;;;;28.36;58.51;97896.56;4976849;28;20063;-61
2023/08/21 09:52:46;;;;;;;8.68;4.00;;;;;;;28.43;58.62;97893.16;4978392;28;20066;-61
2023/08/21 09:55:17;;;;;;;7.78;3.60;;;;;;;28.45;57.69;97896.41;5003548;28;20521;-61
2023/08/21 09:57:45;;;;;;;4.82;3.63;;;;;;;28.41;58.10;97895.50;4964964;28;20043;-61
2023/08/21 10:00:20;;;;;;;9.38;4.15;;;;;;;28.41;58.60;97889.94;4965904;28;20047;-61
2023/08/21 10:02:50;;;;;;;7.38;3.90;;;;;;;28.37;57.36;97883.47;4964594;28;20726;-61
2023/08/21 10:05:18;;;;;;;11.35;3.35;;;;;;;28.41;57.41;97884.34;5006493;28;20156;-61
2023/08/21 10:07:48;;;;;;;8.68;3.63;;;;;;;28.41;57.43;97882.38;4990466;28;20041;-62
2023/08/21 10:10:17;;;;;;;6.60;3.42;;;;;;;28.41;56.71;97879.56;4996780;28;20124;-62
2023/08/21 10:12:44;;;;;;;7.13;3.83;;;;;;;28.46;57.46;97884.09;4966496;28;20449;-63
2023/08/21 10:15:11;;;;;;;8.98;3.70;;;;;;;28.48;57.47;97870.59;5011659;28;20046;-62
2023/08/21 10:17:38;;;;;;;8.38;3.95;;;;;;;28.50;57.87;97873.03;4967339;28;20049;-62
2023/08/21 10:20:07;;;;;;;7.75;3.78;;;;;;;28.67;57.10;97869.88;4970672;28;20126;-62
2023/08/21 10:22:48;;;;;;;13.00;3.90;;;;;;;28.56;57.61;97869.59;4965673;28;20720;-62
2023/08/21 10:25:23;;;;;;;6.95;3.55;;;;;;;28.71;56.73;97867.19;5010349;28;20546;-62
2023/08/21 10:27:57;;;;;;;7.00;3.55;;;;;;;28.80;56.78;97864.19;4935989;28;20052;-62
2023/08/21 10:30:26;;;;;;;5.00;3.55;;;;;;;28.86;56.39;97867.50;4965073;28;20039;-63
2023/08/21 10:32:58;;;;;;;9.45;3.90;;;;;;;28.85;56.07;97865.91;4984882;28;20438;-62
2023/08/21 10:35:30;;;;;;;6.13;3.38;;;;;;;28.88;56.34;97859.56;4992188;28;20055;-62
2023/08/21 10:38:16;;;;;;;8.55;3.92;;;;;;;28.95;55.97;97854.22;4966277;28;20568;-62
2023/08/21 10:41:04;;;;;;;8.63;3.95;;;;;;;28.92;56.53;97857.72;4964202;28;20042;-62
2023/08/21 10:43:45;;;;;;;6.13;3.88;;;;;;;28.95;56.67;97848.63;4966108;28;20050;-62
2023/08/21 10:46:12;;;;;;;6.45;4.30;;;;;;;29.06;56.30;97863.63;4996592;28;20563;-63
2023/08/21 10:48:39;;;;;;;9.82;4.07;;;;;;;29.02;57.70;97854.38;4964777;28;20100;-62
2023/08/21 10:51:08;;;;;;;7.97;3.88;;;;;;;29.13;56.46;97851.81;4995528;28;20043;-62
2023/08/21 10:53:35;;;;;;;7.50;3.70;;;;;;;29.10;56.21;97849.75;4984818;28;20053;-62
2023/08/21 10:56:03;;;;;;;6.75;4.45;;;;;;;28.94;56.54;97853.41;5003861;28;20145;-62
2023/08/21 10:58:43;;;;;;;7.32;3.92;;;;;;;28.91;56.66;97858.88;4964222;28;20605;-62
2023/08/21 11:01:09;;;;;;;8.50;3.90;;;;;;;28.88;57.04;97854.81;4993439;28;20051;-62
2023/08/21 11:03:40;;;;;;;6.93;4.55;;;;;;;28.93;57.13;97854.56;4964184;28;20767;-62
2023/08/21 11:06:08;;;;;;;6.70;4.20;;;;;;;28.93;57.14;97857.34;4990993;28;20565;-62
2023/08/21 11:08:36;;;;;;;12.38;4.53;;;;;;;28.92;57.25;97850.16;4978110;28;20051;-62
2023/08/21 11:11:04;;;;;;;7.38;4.40;;;;;;;28.84;57.73;97853.94;4989123;28;20655;-62
2023/08/21 11:13:32;;;;;;;5.35;3.95;;;;;;;28.87;57.73;97853.22;4963748;28;20058;-62
2023/08/21 11:16:00;;;;;;;7.60;4.40;;;;;;;28.90;57.61;97848.91;4936267;28;20081;-62
2023/08/21 11:18:34;;;;;;;8.63;4.50;;;;;;;29.02;56.64;97848.81;4959705;28;20039;-62
2023/08/21 11:21:12;;;;;;;7.45;4.45;;;;;;;29.16;56.70;97847.50;4988098;28;20185;-62
2023/08/21 11:23:40;;;;;;;8.07;3.80;;;;;;;29.30;57.13;97841.44;4968640;28;20054;-62
2023/08/21 11:26:10;;;;;;;9.20;3.83;;;;;;;29.52;56.65;97842.69;4980234;28;20046;-62
2023/08/21 11:28:47;;;;;;;6.90;4.10;;;;;;;29.70;55.51;97842.25;4960427;28;20038;-62
2023/08/21 11:31:15;;;;;;;7.10;4.00;;;;;;;29.81;54.82;97845.25;4982584;28;20114;-62